Time;durP1;ratioP1;P1;durP2;ratioP2;P2;SDS_P1;SDS_P2;PMS_P1;PMS_P2;Temp;Humidity;BMP_temperature;BMP_pressure;BME280_temperature;BME280_humidity;BME280_pressure;Samples;Min_cycle;Max_cycle;Signal;HPM_P1;HPM_P2
2022/12/03 00:00:34;;;;;;;47.47;23.85;;;;;;;3.32;83.95;100617.81;4448971;32;33897;-74
2022/12/03 00:03:02;;;;;;;43.13;23.27;;;;;;;3.25;84.02;100623.87;4448461;32;32609;-77
2022/12/03 00:05:29;;;;;;;47.13;24.45;;;;;;;3.40;83.87;100613.22;4434875;32;33289;-75
2022/12/03 00:07:57;;;;;;;6.32;3.83;;;;;;;3.17;83.84;100628.47;4434006;32;33745;-76
2022/12/03 00:10:25;;;;;;;49.85;24.85;;;;;;;3.27;84.48;100627.22;4448738;32;34007;-78
2022/12/03 00:12:52;;;;;;;46.97;23.45;;;;;;;3.00;85.59;100631.28;4449008;32;33616;-75
2022/12/03 00:15:19;;;;;;;46.25;24.85;;;;;;;3.26;84.38;100627.41;4433718;32;33976;-74
2022/12/03 00:17:49;;;;;;;47.28;25.15;;;;;;;3.02;86.01;100633.78;4433430;32;33709;-77
2022/12/03 00:20:22;;;;;;;43.97;24.35;;;;;;;3.45;83.54;100634.94;4454073;32;34030;-75
2022/12/03 00:22:49;;;;;;;45.17;23.62;;;;;;;3.32;83.86;100637.41;4434333;32;33739;-76
2022/12/03 00:25:17;;;;;;;34.88;19.58;;;;;;;2.99;84.60;100634.13;4464273;32;33474;-79
2022/12/03 00:27:44;;;;;;;50.88;25.85;;;;;;;2.66;86.93;100635.16;4449270;32;34876;-79
2022/12/03 00:30:13;;;;;;;47.10;24.35;;;;;;;3.11;84.76;100632.72;4462001;32;35204;-82
2022/12/03 00:32:40;;;;;;;48.55;25.30;;;;;;;3.43;83.93;100636.16;4442219;32;33950;-80
2022/12/03 00:35:08;;;;;;;46.40;24.87;;;;;;;3.43;83.69;100638.84;4435328;32;33765;-77
2022/12/03 00:37:36;;;;;;;51.72;26.10;;;;;;;3.74;81.85;100632.53;4434555;32;33756;-75
2022/12/03 00:40:04;;;;;;;51.00;24.87;;;;;;;3.33;84.46;100638.28;4435289;32;34371;-80
2022/12/03 00:42:31;;;;;;;48.15;24.23;;;;;;;3.40;83.54;100640.03;4435408;32;34107;-80
2022/12/03 00:44:59;;;;;;;46.17;24.08;;;;;;;3.56;83.16;100635.53;4449422;32;33230;-76
2022/12/03 00:47:26;;;;;;;45.55;24.05;;;;;;;3.42;83.63;100643.38;4453121;32;33760;-79
2022/12/03 00:49:54;;;;;;;49.20;24.30;;;;;;;3.54;83.50;100634.88;4449301;32;34618;-79
2022/12/03 00:52:21;;;;;;;49.75;25.55;;;;;;;3.61;83.11;100639.38;4434912;32;33836;-75
2022/12/03 00:54:49;;;;;;;45.95;24.85;;;;;;;3.64;82.77;100639.00;4449994;32;33593;-73
2022/12/03 00:57:17;;;;;;;48.75;24.67;;;;;;;3.34;84.25;100639.91;4449440;32;33673;-79
2022/12/03 00:59:44;;;;;;;45.30;23.90;;;;;;;3.51;83.37;100638.78;4449645;32;35168;-76
2022/12/03 01:02:12;;;;;;;50.20;24.73;;;;;;;3.10;85.48;100635.56;4432654;32;33361;-76
2022/12/03 01:04:39;;;;;;;45.80;24.02;;;;;;;3.42;83.87;100637.19;4449208;32;34188;-75
2022/12/03 01:07:10;;;;;;;53.60;25.15;;;;;;;3.43;83.63;100634.28;4435940;32;34404;-77
2022/12/03 01:09:38;;;;;;;53.10;26.77;;;;;;;3.14;85.61;100636.91;4449948;32;34887;-79
2022/12/03 01:12:05;;;;;;;49.20;25.23;;;;;;;3.73;82.66;100631.69;4450840;32;33738;-77
2022/12/03 01:14:33;;;;;;;47.22;24.80;;;;;;;3.49;83.71;100640.81;4441994;32;33613;-76
2022/12/03 01:17:00;;;;;;;51.45;25.88;;;;;;;3.51;83.09;100630.72;4451739;32;33502;-77
2022/12/03 01:19:28;;;;;;;47.45;25.20;;;;;;;3.00;86.18;100633.13;4434528;32;34326;-77
2022/12/03 01:21:55;;;;;;;50.63;25.20;;;;;;;3.04;86.40;100629.91;4438040;32;33832;-74
2022/12/03 01:24:23;;;;;;;45.10;23.92;;;;;;;3.50;84.07;100634.44;4466542;32;34591;-74
2022/12/03 01:26:50;;;;;;;48.30;24.80;;;;;;;3.65;83.27;100635.31;4452061;32;34627;-79
2022/12/03 01:29:18;;;;;;;48.60;25.10;;;;;;;3.54;83.79;100632.22;4450615;32;34338;-74
2022/12/03 01:34:31;;;;;;;51.20;24.90;;;;;;;3.68;82.91;100636.78;4463665;32;33555;-77
2022/12/03 01:36:58;;;;;;;51.58;24.23;;;;;;;3.90;81.32;100637.75;4466346;32;33297;-80
2022/12/03 01:39:26;;;;;;;48.83;25.58;;;;;;;3.41;84.50;100643.53;4450735;32;34192;-75
2022/12/03 01:41:54;;;;;;;47.88;25.17;;;;;;;3.49;84.25;100649.69;4465684;32;34008;-78
2022/12/03 01:44:27;;;;;;;50.12;26.00;;;;;;;3.37;85.13;100647.59;4465245;32;33268;-74
2022/12/03 01:46:56;;;;;;;50.90;25.75;;;;;;;3.41;84.81;100649.78;4451669;32;34024;-77
2022/12/03 01:49:29;;;;;;;48.70;26.12;;;;;;;3.23;86.04;100643.84;4464280;32;33830;-79
2022/12/03 01:51:57;;;;;;;51.08;26.65;;;;;;;3.18;85.28;100644.41;4450831;32;34589;-74
2022/12/03 01:54:27;;;;;;;51.40;26.40;;;;;;;2.81;88.40;100639.78;4465807;32;33176;-74
2022/12/03 01:56:55;;;;;;;55.97;27.15;;;;;;;2.93;87.53;100649.06;4465826;32;33656;-74
2022/12/03 01:59:32;;;;;;;56.05;26.45;;;;;;;3.44;85.47;100644.03;4450504;32;35490;-77
2022/12/03 02:02:10;;;;;;;51.13;24.00;;;;;;;3.15;86.29;100641.22;4451518;32;33701;-73
2022/12/03 02:04:38;;;;;;;46.00;24.15;;;;;;;3.17;85.97;100637.34;4451984;32;33784;-78
2022/12/03 02:07:30;;;;;;;46.15;23.85;;;;;;;3.56;84.07;100633.69;4464827;32;34921;-81
2022/12/03 02:09:59;;;;;;;50.38;25.05;;;;;;;3.32;84.77;100637.41;4458097;32;33531;-81
2022/12/03 02:12:31;;;;;;;48.47;24.63;;;;;;;3.53;84.67;100639.44;4450422;32;33939;-81
2022/12/03 02:14:59;;;;;;;50.90;25.75;;;;;;;3.89;82.39;100633.41;4451307;32;34348;-77
2022/12/03 02:17:27;;;;;;;55.28;27.87;;;;;;;3.73;82.37;100626.31;4451826;32;34722;-79
2022/12/03 02:19:56;;;;;;;56.00;26.30;;;;;;;3.28;85.48;100636.09;4448034;32;34950;-81
2022/12/03 02:22:41;;;;;;;49.28;25.55;;;;;;;3.57;84.53;100629.19;4447663;32;34502;-79
2022/12/03 02:25:20;;;;;;;45.92;23.45;;;;;;;3.76;83.05;100633.16;4449887;32;33925;-79
2022/12/03 02:27:47;;;;;;;50.40;25.35;;;;;;;3.81;83.16;100633.47;4422552;32;34477;-80
2022/12/03 02:30:22;;;;;;;48.35;23.83;;;;;;;3.73;83.33;100637.06;4435730;32;33863;-76
2022/12/03 02:32:50;;;;;;;50.60;24.27;;;;;;;3.87;82.44;100630.91;4439118;32;34030;-74
2022/12/03 02:35:27;;;;;;;48.35;24.42;;;;;;;3.77;82.49;100629.50;4448717;32;34186;-78
2022/12/03 02:37:59;;;;;;;54.03;26.02;;;;;;;3.71;83.23;100631.03;4448814;32;34817;-74
2022/12/03 02:40:30;;;;;;;52.70;25.40;;;;;;;3.65;83.18;100631.75;4435340;32;34210;-77
2022/12/03 02:43:00;;;;;;;48.65;24.50;;;;;;;3.14;85.05;100627.00;4449846;32;34537;-80
2022/12/03 02:45:30;;;;;;;45.30;22.98;;;;;;;3.50;83.97;100626.38;4435425;32;33440;-76
2022/12/03 02:48:05;;;;;;;50.63;25.10;;;;;;;3.68;82.92;100628.72;4441658;32;34619;-77
2022/12/03 02:50:36;;;;;;;53.08;25.58;;;;;;;3.54;83.13;100629.53;4448535;32;33998;-74
2022/12/03 02:53:06;;;;;;;48.90;24.58;;;;;;;3.37;84.18;100635.03;4447714;32;33756;-78
2022/12/03 02:55:34;;;;;;;52.20;25.27;;;;;;;3.67;82.55;100633.28;4448488;32;33690;-76
2022/12/03 02:58:04;;;;;;;48.28;23.73;;;;;;;3.45;83.20;100634.13;4448388;32;34519;-75
2022/12/03 03:00:32;;;;;;;51.80;25.45;;;;;;;3.64;82.01;100636.31;4449499;32;34195;-76
2022/12/03 03:03:01;;;;;;;47.35;25.33;;;;;;;3.84;81.73;100635.78;4443099;32;34670;-75
2022/12/03 03:05:29;;;;;;;46.33;23.90;;;;;;;3.72;81.42;100630.03;4448261;32;33754;-80
2022/12/03 03:07:58;;;;;;;48.17;24.30;;;;;;;3.29;83.95;100629.75;4447798;32;33880;-81
2022/12/03 03:10:26;;;;;;;46.13;24.25;;;;;;;3.50;83.85;100634.44;4448110;32;34731;-80
2022/12/03 03:12:54;;;;;;;47.83;24.55;;;;;;;3.30;84.75;100634.06;4447658;32;34545;-78
2022/12/03 03:15:22;;;;;;;46.03;24.75;;;;;;;3.49;83.42;100643.47;4435515;32;33281;-73
2022/12/03 03:17:50;;;;;;;25.85;14.40;;;;;;;3.52;82.78;100643.16;4450070;32;33910;-76
2022/12/03 03:20:17;;;;;;;54.55;26.17;;;;;;;3.79;81.49;100635.50;4455062;32;33802;-80
2022/12/03 03:22:45;;;;;;;50.53;25.27;;;;;;;3.49;82.37;100643.47;4465092;32;33923;-77
2022/12/03 03:25:16;;;;;;;51.22;26.37;;;;;;;3.64;82.20;100643.53;4450809;32;33431;-74
2022/12/03 03:27:43;;;;;;;50.92;24.33;;;;;;;2.98;85.73;100637.81;4436376;32;34433;-74
2022/12/03 03:30:12;;;;;;;50.92;25.67;;;;;;;3.40;83.40;100639.22;4448726;32;34171;-79
2022/12/03 03:32:40;;;;;;;47.70;23.73;;;;;;;3.67;82.15;100640.47;4420851;32;33691;-80
2022/12/03 03:35:09;;;;;;;48.97;25.00;;;;;;;3.60;82.71;100637.69;4434032;32;33386;-80
2022/12/03 03:37:37;;;;;;;51.08;25.75;;;;;;;3.25;83.81;100633.78;4432963;32;34765;-79
2022/12/03 03:40:05;;;;;;;49.72;26.48;;;;;;;3.11;85.06;100631.88;4432226;32;33916;-79
2022/12/03 03:42:33;;;;;;;56.45;24.23;;;;;;;3.26;83.11;100630.94;4419337;32;33713;-76
2022/12/03 03:45:00;;;;;;;42.15;23.02;;;;;;;3.42;83.21;100635.31;4424165;32;33336;-75
2022/12/03 03:47:28;;;;;;;46.63;24.30;;;;;;;3.35;83.12;100636.22;4449341;32;34038;-80
2022/12/03 03:49:55;;;;;;;47.67;24.67;;;;;;;3.55;81.98;100634.72;4419493;32;34833;-78
2022/12/03 03:52:23;;;;;;;52.30;25.55;;;;;;;3.40;82.68;100633.84;4442197;32;34520;-78
2022/12/03 03:54:51;;;;;;;47.38;24.00;;;;;;;3.49;82.45;100630.91;4434984;32;34951;-74
2022/12/03 03:57:19;;;;;;;48.42;25.60;;;;;;;3.30;83.40;100639.44;4448757;32;33635;-80
2022/12/03 03:59:46;;;;;;;49.95;25.77;;;;;;;3.36;83.12;100633.34;4438745;32;34862;-74
2022/12/03 04:02:21;;;;;;;50.30;26.00;;;;;;;3.84;80.84;100628.56;4464515;32;33943;-74
2022/12/03 04:04:49;;;;;;;47.42;25.40;;;;;;;3.51;82.79;100640.63;4437442;32;33360;-74
2022/12/03 04:07:17;;;;;;;49.45;25.65;;;;;;;3.43;83.09;100634.28;4420960;32;34401;-78
2022/12/03 04:09:45;;;;;;;46.25;24.48;;;;;;;3.20;83.87;100638.88;4433568;32;34588;-75
2022/12/03 04:15:12;;;;;;;47.40;23.85;;;;;;;3.34;84.23;100643.44;4417487;32;33112;-76
2022/12/03 04:17:40;;;;;;;48.70;24.87;;;;;;;3.51;82.78;100638.78;4465654;32;35356;-80
2022/12/03 04:20:08;;;;;;;49.63;27.02;;;;;;;3.19;84.07;100631.81;4456880;32;33988;-80
2022/12/03 04:22:38;;;;;;;48.85;25.62;;;;;;;3.33;83.99;100635.59;4452361;32;33728;-80
2022/12/03 04:30:40;;;;;;;45.10;24.12;;;;;;;3.51;82.52;100635.25;4466382;32;34217;-76
2022/12/03 04:35:54;;;;;;;50.67;25.80;;;;;;;3.19;84.44;100629.12;4466278;32;34198;-77
2022/12/03 04:38:21;;;;;;;29.65;15.13;;;;;;;3.02;85.22;100642.66;4464742;32;33141;-78
2022/12/03 04:41:02;;;;;;;46.72;25.65;;;;;;;3.23;84.30;100643.84;4466311;32;33982;-74
2022/12/03 04:43:33;;;;;;;51.08;25.50;;;;;;;3.10;85.59;100635.56;4455281;32;35460;-81
2022/12/03 04:46:00;;;;;;;50.65;26.33;;;;;;;3.58;83.32;100637.03;4466151;32;34556;-81
2022/12/03 04:48:29;;;;;;;49.33;26.05;;;;;;;3.27;83.71;100639.81;4465891;32;34043;-77
2022/12/03 04:50:56;;;;;;;50.17;25.90;;;;;;;3.19;84.48;100637.19;4466314;32;34695;-75
2022/12/03 04:53:24;;;;;;;52.90;25.92;;;;;;;3.59;82.27;100640.56;4451841;32;33153;-78
2022/12/03 04:55:51;;;;;;;48.70;26.92;;;;;;;3.49;82.88;100630.91;4465682;32;33312;-75
2022/12/03 04:58:19;;;;;;;48.90;26.17;;;;;;;3.46;83.44;100627.75;4466180;32;33790;-77
2022/12/03 05:00:46;;;;;;;48.95;26.12;;;;;;;3.15;84.35;100631.34;4451722;32;33164;-75
2022/12/03 05:03:13;;;;;;;47.10;25.40;;;;;;;2.98;86.24;100644.03;4466223;32;33591;-79
2022/12/03 05:05:42;;;;;;;52.88;27.42;;;;;;;3.25;84.82;100647.19;4466277;32;34254;-75
2022/12/03 05:08:09;;;;;;;52.78;27.40;;;;;;;3.56;82.68;100652.47;4465229;32;34301;-77
2022/12/03 05:10:37;;;;;;;59.00;28.05;;;;;;;3.01;84.72;100648.19;4451073;32;34236;-76
2022/12/03 05:13:04;;;;;;;60.97;28.08;;;;;;;2.96;85.54;100653.25;4467327;32;34065;-78
2022/12/03 05:15:32;;;;;;;8.07;4.00;;;;;;;2.98;85.44;100653.91;4465706;32;33421;-75
2022/12/03 05:17:59;;;;;;;54.92;28.00;;;;;;;3.06;85.42;100662.72;4464423;32;33853;-81
2022/12/03 05:20:41;;;;;;;52.80;27.10;;;;;;;3.16;84.57;100654.47;4465556;32;34863;-76
2022/12/03 05:23:17;;;;;;;62.03;27.62;;;;;;;2.86;86.25;100659.66;4466001;32;33681;-80
2022/12/03 05:25:45;;;;;;;54.17;28.42;;;;;;;2.77;87.24;100659.91;4448394;32;33784;-80
2022/12/03 05:28:12;;;;;;;59.83;29.30;;;;;;;2.75;87.37;100661.91;4465122;32;35061;-74
2022/12/03 05:30:39;;;;;;;57.70;29.27;;;;;;;2.82;86.97;100666.38;4451701;32;35226;-76
2022/12/03 05:33:07;;;;;;;56.42;28.08;;;;;;;3.26;84.05;100659.56;4450512;32;34369;-75
2022/12/03 05:35:35;;;;;;;57.08;28.58;;;;;;;3.36;83.91;100664.72;4450522;32;34065;-81
2022/12/03 05:38:02;;;;;;;58.58;28.87;;;;;;;3.00;85.76;100662.59;4422576;32;32797;-80
2022/12/03 05:40:29;;;;;;;60.38;29.23;;;;;;;3.30;84.68;100663.56;4436688;32;33932;-75
2022/12/03 05:42:57;;;;;;;59.25;30.05;;;;;;;3.02;86.20;100666.81;4465926;32;33720;-77
2022/12/03 05:45:25;;;;;;;60.50;29.63;;;;;;;2.80;86.39;100667.56;4425400;32;32935;-79
2022/12/03 05:47:54;;;;;;;59.90;28.75;;;;;;;2.95;86.48;100676.53;4433881;32;33279;-78
2022/12/03 05:50:24;;;;;;;51.40;26.30;;;;;;;2.90;85.99;100678.09;4435069;32;33901;-76
2022/12/03 05:52:54;;;;;;;54.20;26.98;;;;;;;3.08;85.72;100679.47;4435007;32;35038;-77
2022/12/03 05:55:22;;;;;;;51.95;26.42;;;;;;;3.01;85.64;100680.38;4435401;32;34188;-76
2022/12/03 05:57:49;;;;;;;52.05;25.77;;;;;;;3.31;84.91;100684.03;4435289;32;33920;-78
2022/12/03 06:00:22;;;;;;;49.83;25.05;;;;;;;3.53;83.30;100684.22;4442357;32;33922;-77
2022/12/03 06:02:49;;;;;;;54.08;24.63;;;;;;;3.15;84.59;100687.63;4434628;32;33685;-77
2022/12/03 06:05:21;;;;;;;51.85;26.30;;;;;;;3.31;83.87;100681.34;4434810;32;33431;-81
2022/12/03 06:07:49;;;;;;;57.22;27.42;;;;;;;3.42;83.95;100677.41;4434119;32;34660;-81
2022/12/03 06:10:20;;;;;;;55.75;26.48;;;;;;;3.53;83.18;100686.91;4446766;32;34066;-81
2022/12/03 06:12:47;;;;;;;57.13;27.80;;;;;;;3.57;83.18;100682.84;4451210;32;34655;-79
2022/12/03 06:15:15;;;;;;;58.50;30.33;;;;;;;3.61;82.17;100684.16;4449063;32;106027;-81
2022/12/03 06:17:43;;;;;;;62.72;28.95;;;;;;;3.32;83.28;100691.06;4438975;32;34041;-80
2022/12/03 06:20:13;;;;;;;61.20;29.52;;;;;;;3.78;81.60;100671.41;4422117;32;34209;-81
2022/12/03 06:22:41;;;;;;;58.53;29.58;;;;;;;3.34;84.53;100672.09;4435216;32;33956;-77
2022/12/03 06:25:10;;;;;;;55.75;28.00;;;;;;;3.25;84.50;100658.75;4452100;32;34223;-81
2022/12/03 06:27:38;;;;;;;56.37;27.77;;;;;;;2.85;86.11;100668.72;4436859;32;34686;-78
2022/12/03 06:30:07;;;;;;;57.62;29.23;;;;;;;3.04;85.75;100670.09;4436842;32;34895;-79
2022/12/03 06:32:35;;;;;;;55.72;27.95;;;;;;;3.16;85.24;100675.91;4436346;32;34727;-83
2022/12/03 06:35:03;;;;;;;33.28;16.55;;;;;;;3.08;85.98;100675.97;4445228;32;33605;-78
2022/12/03 06:37:30;;;;;;;55.92;27.73;;;;;;;3.17;85.46;100674.06;4432553;32;33629;-82
2022/12/03 06:39:57;;;;;;;53.78;27.75;;;;;;;2.99;86.13;100674.34;4447620;32;35268;-80
2022/12/03 06:42:25;;;;;;;56.65;29.48;;;;;;;3.15;85.63;100668.03;4452678;32;33977;-87
2022/12/03 06:44:53;;;;;;;59.10;28.40;;;;;;;3.44;84.32;100675.41;4452535;32;34525;-89
2022/12/03 06:47:22;;;;;;;52.22;26.67;;;;;;;3.06;85.74;100678.81;4437894;32;32802;-90
2022/12/03 06:49:49;;;;;;;55.10;27.87;;;;;;;2.97;87.25;100677.19;4451205;32;34019;-90
2022/12/03 06:52:16;;;;;;;55.80;27.37;;;;;;;3.32;85.35;100680.31;4452544;32;33954;-91
2022/12/03 06:54:44;;;;;;;53.80;27.67;;;;;;;3.13;86.05;100678.09;4452779;32;34450;-91
2022/12/03 06:57:11;;;;;;;53.83;26.75;;;;;;;3.38;84.78;100684.97;4452580;32;33190;-89
2022/12/03 06:59:40;;;;;;;48.92;25.40;;;;;;;3.29;84.68;100694.09;4451979;32;34000;-85
2022/12/03 07:02:08;;;;;;;53.83;25.85;;;;;;;3.53;84.22;100687.72;4452100;32;34367;-88
2022/12/03 07:04:36;;;;;;;52.72;26.37;;;;;;;3.92;81.86;100686.72;4451726;32;34474;-87
2022/12/03 07:07:11;;;;;;;58.85;27.58;;;;;;;3.67;82.71;100691.47;4438357;32;33870;-85
2022/12/03 07:09:38;;;;;;;54.95;27.23;;;;;;;3.69;82.88;100692.97;4452115;32;33794;-89
2022/12/03 07:12:05;;;;;;;59.03;26.52;;;;;;;3.67;82.99;100688.78;4451489;32;34190;-83
2022/12/03 07:14:33;;;;;;;53.28;25.60;;;;;;;3.78;82.64;100693.75;4452311;32;33636;-92
2022/12/03 07:17:01;;;;;;;49.47;25.58;;;;;;;3.54;83.81;100693.91;4451797;32;34018;-82
2022/12/03 07:19:28;;;;;;;49.85;25.17;;;;;;;3.85;82.80;100697.34;4452556;32;34223;-85
2022/12/03 07:21:59;;;;;;;53.28;25.77;;;;;;;4.29;80.39;100685.84;4467746;32;33748;-90
2022/12/03 07:24:27;;;;;;;49.75;25.77;;;;;;;4.23;80.35;100688.44;4449806;32;34331;-86
2022/12/03 07:26:54;;;;;;;46.95;24.30;;;;;;;4.04;80.65;100681.72;4458672;32;34044;-78
2022/12/03 07:29:22;;;;;;;49.58;25.35;;;;;;;4.15;80.78;100683.12;4467880;32;35083;-76
2022/12/03 07:31:49;;;;;;;48.50;24.63;;;;;;;4.33;80.42;100683.63;4454528;32;33604;-88
2022/12/03 07:34:16;;;;;;;48.22;25.35;;;;;;;4.33;79.94;100686.31;4456053;32;33355;-76
2022/12/03 07:36:44;;;;;;;50.22;27.30;;;;;;;3.70;83.69;100699.16;4451225;32;33996;-86
2022/12/03 07:39:12;;;;;;;49.85;24.80;;;;;;;4.22;81.33;100698.34;4451102;32;34274;-79
2022/12/03 07:41:39;;;;;;;45.05;23.67;;;;;;;4.57;79.01;100690.56;4457597;32;34618;-80
2022/12/03 07:44:07;;;;;;;47.33;24.58;;;;;;;4.43;79.62;100683.34;4449906;32;33774;-78
2022/12/03 07:46:41;;;;;;;49.65;25.48;;;;;;;4.52;78.82;100680.38;4440938;32;33850;-83
2022/12/03 07:49:10;;;;;;;47.88;24.48;;;;;;;4.45;79.68;100681.28;4469515;32;34971;-76
2022/12/03 07:51:38;;;;;;;46.92;25.10;;;;;;;4.22;80.70;100676.84;4443022;32;33926;-79
2022/12/03 07:54:06;;;;;;;48.55;26.35;;;;;;;4.49;79.80;100680.75;4456935;32;34308;-73
2022/12/03 07:56:34;;;;;;;49.38;25.73;;;;;;;4.79;78.33;100672.62;4446276;32;33724;-73
2022/12/03 07:59:01;;;;;;;52.58;26.02;;;;;;;3.92;82.98;100670.63;4469700;32;34164;-74
2022/12/03 08:01:28;;;;;;;47.85;25.17;;;;;;;4.35;80.65;100673.53;4455201;32;34032;-77
2022/12/03 08:03:56;;;;;;;49.22;25.85;;;;;;;4.39;80.91;100677.50;4454544;32;33814;-78
2022/12/03 08:06:23;;;;;;;48.67;26.10;;;;;;;4.65;79.97;100681.56;4455749;32;33739;-75
2022/12/03 08:08:51;;;;;;;48.40;25.08;;;;;;;4.58;79.04;100683.31;4435635;32;34228;-78
2022/12/03 08:11:18;;;;;;;45.47;26.15;;;;;;;4.96;77.88;100686.69;4463600;32;34054;-72
2022/12/03 08:13:46;;;;;;;49.03;26.02;;;;;;;4.84;78.53;100691.75;4463470;32;33612;-74
2022/12/03 08:16:16;;;;;;;46.75;24.12;;;;;;;5.05;78.15;100699.00;4449162;32;32422;-80
2022/12/03 08:18:46;;;;;;;46.80;24.98;;;;;;;4.63;79.87;100705.13;4424817;32;33892;-70
2022/12/03 08:21:20;;;;;;;46.60;26.60;;;;;;;4.51;79.98;100699.38;4460857;32;34763;-73
2022/12/03 08:23:47;;;;;;;52.92;25.05;;;;;;;4.61;79.87;100704.47;4457914;32;34310;-72
2022/12/03 08:26:23;;;;;;;48.60;26.33;;;;;;;5.03;78.44;100709.16;4463749;32;33786;-71
2022/12/03 08:28:52;;;;;;;47.22;26.00;;;;;;;5.26;77.39;100698.22;4454135;32;32708;-70
2022/12/03 08:31:25;;;;;;;45.40;25.17;;;;;;;5.08;77.79;100690.59;4438274;32;34467;-71
2022/12/03 08:34:15;;;;;;;49.40;24.60;;;;;;;5.18;77.13;100689.44;4461240;32;33459;-74
2022/12/03 08:36:43;;;;;;;47.22;24.67;;;;;;;4.59;79.51;100687.69;4433522;32;34093;-69
2022/12/03 08:39:36;;;;;;;52.20;27.92;;;;;;;4.60;80.25;100692.91;4442141;32;34989;-71
2022/12/03 08:44:50;;;;;;;54.47;28.95;;;;;;;4.34;81.31;100690.66;4466696;32;32615;-82
2022/12/03 08:47:21;;;;;;;52.20;28.23;;;;;;;3.85;82.95;100700.03;4455059;32;33609;-83
2022/12/03 08:49:56;;;;;;;53.45;29.02;;;;;;;3.92;83.48;100707.38;4463487;32;35451;-85
2022/12/03 08:52:32;;;;;;;60.22;28.83;;;;;;;4.47;81.23;100716.88;4451111;32;34547;-76
2022/12/03 08:55:11;;;;;;;57.15;29.15;;;;;;;4.46;81.73;100717.91;4469416;32;33393;-80
2022/12/03 08:57:40;;;;;;;57.75;29.70;;;;;;;5.06;78.52;100724.06;4454875;32;34045;-76
2022/12/03 09:00:23;;;;;;;56.42;29.63;;;;;;;4.34;81.66;100719.38;4469110;32;34833;-77
2022/12/03 09:02:53;;;;;;;57.22;29.50;;;;;;;4.52;81.22;100727.91;4449648;32;34057;-78
2022/12/03 09:05:25;;;;;;;53.28;28.42;;;;;;;4.81;79.21;100723.53;4469428;32;34418;-77
2022/12/03 09:07:52;;;;;;;56.08;29.15;;;;;;;4.71;81.35;100718.47;4455077;32;34641;-78
2022/12/03 09:10:20;;;;;;;52.40;28.23;;;;;;;4.90;79.88;100709.81;4442918;32;33887;-76
2022/12/03 09:12:47;;;;;;;56.70;28.92;;;;;;;4.76;79.57;100713.34;4424035;32;33320;-78
2022/12/03 09:15:15;;;;;;;62.03;32.42;;;;;;;4.59;81.16;100715.41;4469361;32;33330;-78
2022/12/03 09:17:42;;;;;;;55.10;30.40;;;;;;;4.76;80.64;100705.28;4458911;32;33321;-77
2022/12/03 09:20:10;;;;;;;56.53;27.90;;;;;;;4.98;79.94;100695.41;4436323;32;34401;-78
2022/12/03 09:22:38;;;;;;;56.67;30.58;;;;;;;4.62;80.90;100703.44;4468840;32;33877;-74
2022/12/03 09:25:06;;;;;;;54.13;29.52;;;;;;;4.36;82.50;100699.34;4463402;32;33173;-75
2022/12/03 09:27:33;;;;;;;60.33;30.25;;;;;;;4.50;81.94;100695.03;4440404;32;33502;-76
2022/12/03 09:30:02;;;;;;;57.55;30.67;;;;;;;4.98;80.55;100694.59;4468573;32;34213;-75
2022/12/03 09:32:30;;;;;;;55.97;28.85;;;;;;;5.23;77.87;100703.16;4425156;32;34439;-75
2022/12/03 09:34:57;;;;;;;51.05;28.08;;;;;;;4.68;80.66;100692.78;4450024;32;34200;-74
2022/12/03 09:37:25;;;;;;;50.50;27.58;;;;;;;4.29;82.59;100696.56;4467151;32;33524;-76
2022/12/03 09:39:52;;;;;;;48.40;26.30;;;;;;;4.43;81.99;100689.56;4460746;32;35050;-73
2022/12/03 09:42:19;;;;;;;52.00;28.25;;;;;;;4.82;80.27;100683.03;4465613;32;34318;-74
2022/12/03 09:44:47;;;;;;;48.63;26.35;;;;;;;4.89;79.73;100691.19;4443651;32;34491;-75
2022/12/03 09:47:14;;;;;;;47.75;26.48;;;;;;;5.09;78.83;100694.09;4449736;32;33803;-73
2022/12/03 09:49:42;;;;;;;47.10;25.15;;;;;;;5.18;78.37;100694.81;4462449;32;34204;-72
2022/12/03 09:52:23;;;;;;;51.70;27.70;;;;;;;5.03;78.40;100682.25;4451874;32;35287;-73
2022/12/03 09:54:52;;;;;;;46.17;26.23;;;;;;;5.00;78.84;100685.31;4452102;32;33602;-73
2022/12/03 09:57:20;;;;;;;47.78;26.25;;;;;;;4.83;79.83;100673.94;4451665;32;34595;-89
2022/12/03 09:59:47;;;;;;;44.65;25.48;;;;;;;4.53;81.26;100686.56;4449306;32;33966;-76
2022/12/03 10:02:27;;;;;;;43.03;25.20;;;;;;;4.93;79.17;100682.53;4435504;32;34000;-75
2022/12/03 10:04:56;;;;;;;46.40;26.80;;;;;;;5.19;79.46;100669.59;4442453;32;33620;-76
2022/12/03 10:07:24;;;;;;;42.22;23.27;;;;;;;5.46;77.35;100667.97;4448888;32;33855;-77
2022/12/03 10:09:52;;;;;;;47.55;25.73;;;;;;;5.64;75.66;100667.53;4437410;32;34294;-78
2022/12/03 10:12:22;;;;;;;47.40;25.12;;;;;;;5.54;76.24;100670.56;4460653;32;34708;-76
2022/12/03 10:14:50;;;;;;;44.17;25.98;;;;;;;5.41;77.13;100668.56;4454251;32;34383;-77
2022/12/03 10:17:18;;;;;;;45.65;25.23;;;;;;;5.42;77.26;100662.16;4445223;32;33921;-72
2022/12/03 10:19:47;;;;;;;45.08;25.10;;;;;;;5.85;76.12;100659.44;4463396;32;34853;-83
2022/12/03 10:22:14;;;;;;;44.38;25.42;;;;;;;6.51;74.20;100653.66;4465225;32;33637;-77
2022/12/03 10:24:43;;;;;;;41.60;23.55;;;;;;;6.35;73.08;100652.12;4454107;32;33834;-79
2022/12/03 10:27:24;;;;;;;40.35;24.20;;;;;;;6.66;72.69;100648.13;4465954;32;33955;-76
2022/12/03 10:29:59;;;;;;;41.08;23.17;;;;;;;6.17;73.36;100649.09;4450086;32;34683;-75
2022/12/03 10:32:39;;;;;;;41.00;23.48;;;;;;;6.59;71.86;100636.50;4453011;32;34111;-79
2022/12/03 10:35:19;;;;;;;43.50;25.10;;;;;;;6.58;72.36;100632.09;4468548;32;33766;-78
2022/12/03 10:38:00;;;;;;;39.15;23.10;;;;;;;5.98;74.47;100629.06;4464733;32;34328;-77
2022/12/03 10:40:30;;;;;;;39.22;23.52;;;;;;;6.35;73.22;100629.75;4466456;32;33953;-73
2022/12/03 10:43:18;;;;;;;43.15;24.50;;;;;;;6.36;74.41;100628.69;4452857;32;33691;-73
2022/12/03 10:45:50;;;;;;;41.35;23.48;;;;;;;6.69;71.97;100636.91;4453237;32;33525;-72
2022/12/03 10:48:20;;;;;;;40.33;22.52;;;;;;;7.03;70.47;100620.84;4453224;32;34431;-73
2022/12/03 10:50:51;;;;;;;41.92;23.90;;;;;;;6.92;71.17;100615.00;4466948;32;35110;-79
2022/12/03 10:53:25;;;;;;;34.28;20.33;;;;;;;6.73;72.02;100619.31;4453789;32;34634;-79
2022/12/03 10:55:58;;;;;;;39.33;22.98;;;;;;;6.20;73.50;100620.91;4452948;32;34287;-79
2022/12/03 10:58:28;;;;;;;35.83;21.12;;;;;;;6.32;73.61;100617.47;4452491;32;33682;-77
2022/12/03 11:00:56;;;;;;;38.72;21.98;;;;;;;6.11;73.72;100609.47;4468293;32;34218;-78
2022/12/03 11:03:26;;;;;;;36.40;20.52;;;;;;;6.23;73.39;100618.66;4468231;32;34023;-78
2022/12/03 11:05:55;;;;;;;33.13;20.10;;;;;;;6.41;72.91;100601.97;4467880;32;34326;-80
2022/12/03 11:08:25;;;;;;;32.50;19.80;;;;;;;6.65;72.85;100602.47;4452533;32;34527;-81
2022/12/03 11:10:58;;;;;;;33.78;19.90;;;;;;;6.83;70.68;100602.75;4454031;32;33583;-76
2022/12/03 11:13:46;;;;;;;33.25;19.20;;;;;;;6.63;72.08;100599.16;4450534;32;33721;-78
2022/12/03 11:16:40;;;;;;;29.20;18.35;;;;;;;6.65;71.25;100599.78;4454096;32;33160;-82
2022/12/03 11:19:44;;;;;;;31.58;19.08;;;;;;;6.93;70.19;100596.94;4426903;32;32883;-75
2022/12/03 11:22:11;;;;;;;30.23;18.35;;;;;;;7.39;68.65;100583.53;4451096;32;34037;-81
2022/12/03 11:24:39;;;;;;;30.77;17.98;;;;;;;7.11;68.53;100575.63;4466243;32;35276;-81
2022/12/03 11:27:16;;;;;;;32.78;18.60;;;;;;;7.34;68.57;100577.09;4453152;32;34412;-85
2022/12/03 11:29:47;;;;;;;29.40;18.02;;;;;;;7.20;68.29;100570.84;4453485;32;33743;-86
2022/12/03 11:32:39;;;;;;;33.25;19.20;;;;;;;7.58;67.44;100570.22;4465793;32;33939;-78
2022/12/03 11:35:15;;;;;;;32.28;17.80;;;;;;;8.00;65.17;100582.44;4452488;32;34831;-79
2022/12/03 11:37:42;;;;;;;32.92;18.83;;;;;;;7.96;65.52;100574.97;4429486;32;33356;-80
2022/12/03 11:40:16;;;;;;;30.00;17.48;;;;;;;8.21;64.98;100573.22;4450133;32;34776;-83
2022/12/03 11:42:45;;;;;;;27.10;16.48;;;;;;;7.81;65.25;100576.00;4466359;32;33322;-76
2022/12/03 11:45:22;;;;;;;29.27;16.50;;;;;;;7.59;65.50;100561.09;4467720;32;33479;-76